Angora, NE

8:07 PM MDT on September 03, 2015 (GMT -0600)
Bridgeport Ampride | | Change Station
CLOSE
Current Station
Personal Weather Station
Location: Bridgeport, NE
Elevation: 3671 ft
Nearby Weather Stations

Elev 3671 ft 41.67 °N, 103.10 °W | Updated 10 minutes ago

Overcast
Overcast
77.3 °F
Feels Like 79 °F
N
2.0
Wind Variable Wind from ESE
Gusts 8.0 mph

Today
High -- | Low -- °F
--% Chance of Precip.
Yesterday
High -- | Low -- °F
Precip. -- in
6:19 AM 7:22 PM
Waning Gibbous, 64% visible
Pressure 29.76 in
Visibility 10.0 miles
Clouds Few 12000 ft
Heat Index 79 °F
Dew Point 54 °F
Humidity 45%
Rainfall 0.00 in
Snow Depth Not available.
UV 0 out of 12
Pollen 9.60 out of 12
Air Quality Not available.
Flu Activity Not available.
METAR KAIA 040153Z AUTO 32008KT 10SM FEW120 24/10 A2988 RMK AO2 SLP077 T02440100
Pressure 29.76 in
Visibility 10.0 miles
Clouds Few 12000 ft
Heat Index 79 °F
Dew Point 54 °F
Humidity 45%
Rainfall 0.00 in
Snow Depth Not available.
UV 0 out of 12
Pollen 9.60 out of 12
Air Quality Not available.
Flu Activity Not available.
METAR KAIA 040153Z AUTO 32008KT 10SM FEW120 24/10 A2988 RMK AO2 SLP077 T02440100

10-Day Weather Forecast

×

Almanac

Astronomy

Sep. 03, 2015 Rise Set
Actual Time
Civil Twilight
Nautical Twilight
Astronomical Twilight
Moon
Length of Visible Light
Length of Day
Tomorrow will be .
, % of the Moon is Illuminated

Today's Extremes

State Highs State Lows

Community

WunderPhotos

Upload Photos

1,852,095 photos uploaded!

WunderBlogs® & News

Nearby

Air Quality

  Air Quality AQ Index Pollutant
Not available.

Snow Depth

Station Depth Elevation

Earthquake Activity

City Distance Mag. Time & Date
Minimum magnitude displayed is 2.5.

Coastal Water Temperatures

Place Temperature

Stations

Nearby Weather Stations

Station Location Temp. Windchill Dew Point Humidity Wind Precip. Elev Updated Type